sensor_id;sensor_type;location;lat;lon;timestamp;pressure;altitude;pressure_sealevel;temperature;humidity
72896;BME280;61036;53.224;6.554;2023-08-06T00:01:39;100692.16;;;17.62;100.00
72896;BME280;61036;53.224;6.554;2023-08-06T00:04:04;100694.25;;;17.34;100.00
72896;BME280;61036;53.224;6.554;2023-08-06T00:06:30;100687.81;;;17.43;100.00
72896;BME280;61036;53.224;6.554;2023-08-06T00:08:55;100685.00;;;17.27;100.00
72896;BME280;61036;53.224;6.554;2023-08-06T00:11:20;100680.13;;;17.38;100.00
72896;BME280;61036;53.224;6.554;2023-08-06T00:13:46;100682.13;;;16.94;100.00
72896;BME280;61036;53.224;6.554;2023-08-06T00:16:12;100680.13;;;17.38;100.00
72896;BME280;61036;53.224;6.554;2023-08-06T00:18:39;100679.09;;;17.31;100.00
72896;BME280;61036;53.224;6.554;2023-08-06T00:21:04;100660.53;;;17.35;100.00
72896;BME280;61036;53.224;6.554;2023-08-06T00:23:30;100672.00;;;17.47;100.00
72896;BME280;61036;53.224;6.554;2023-08-06T00:25:56;100665.84;;;17.45;100.00
72896;BME280;61036;53.224;6.554;2023-08-06T00:28:21;100668.59;;;17.53;100.00
72896;BME280;61036;53.224;6.554;2023-08-06T00:30:55;100673.63;;;17.74;100.00
72896;BME280;61036;53.224;6.554;2023-08-06T00:33:22;100663.03;;;17.71;100.00
72896;BME280;61036;53.224;6.554;2023-08-06T00:35:48;100662.34;;;17.18;100.00
72896;BME280;61036;53.224;6.554;2023-08-06T00:38:13;100669.28;;;17.47;100.00
72896;BME280;61036;53.224;6.554;2023-08-06T00:40:39;100661.59;;;17.50;100.00
72896;BME280;61036;53.224;6.554;2023-08-06T00:43:04;100662.44;;;17.43;100.00
72896;BME280;61036;53.224;6.554;2023-08-06T00:45:33;100667.25;;;17.49;100.00
72896;BME280;61036;53.224;6.554;2023-08-06T00:48:00;100664.41;;;17.24;100.00
72896;BME280;61036;53.224;6.554;2023-08-06T00:50:26;100665.31;;;17.33;100.00
72896;BME280;61036;53.224;6.554;2023-08-06T00:52:52;100665.50;;;17.48;100.00
72896;BME280;61036;53.224;6.554;2023-08-06T00:55:17;100667.13;;;17.67;100.00
72896;BME280;61036;53.224;6.554;2023-08-06T00:57:43;100671.03;;;17.64;100.00
72896;BME280;61036;53.224;6.554;2023-08-06T01:00:09;100666.88;;;17.44;100.00
72896;BME280;61036;53.224;6.554;2023-08-06T01:02:35;100661.28;;;17.53;100.00
72896;BME280;61036;53.224;6.554;2023-08-06T01:05:01;100664.59;;;17.31;100.00
72896;BME280;61036;53.224;6.554;2023-08-06T01:13:24;100659.72;;;17.85;100.00
72896;BME280;61036;53.224;6.554;2023-08-06T01:15:55;100664.25;;;17.76;100.00
72896;BME280;61036;53.224;6.554;2023-08-06T01:18:24;100660.00;;;17.74;100.00
72896;BME280;61036;53.224;6.554;2023-08-06T01:20:49;100656.56;;;17.72;100.00
72896;BME280;61036;53.224;6.554;2023-08-06T01:23:15;100661.50;;;17.60;100.00
72896;BME280;61036;53.224;6.554;2023-08-06T01:28:29;100664.06;;;17.70;100.00
72896;BME280;61036;53.224;6.554;2023-08-06T01:31:01;100657.88;;;17.59;100.00
72896;BME280;61036;53.224;6.554;2023-08-06T01:33:32;100662.53;;;17.67;100.00
72896;BME280;61036;53.224;6.554;2023-08-06T01:35:58;100654.59;;;17.48;100.00
72896;BME280;61036;53.224;6.554;2023-08-06T01:38:24;100650.56;;;17.52;100.00
72896;BME280;61036;53.224;6.554;2023-08-06T01:40:50;100654.28;;;17.51;100.00
72896;BME280;61036;53.224;6.554;2023-08-06T01:43:16;100657.78;;;17.35;100.00
72896;BME280;61036;53.224;6.554;2023-08-06T01:45:41;100655.59;;;17.38;100.00
72896;BME280;61036;53.224;6.554;2023-08-06T01:48:07;100652.72;;;17.40;100.00
72896;BME280;61036;53.224;6.554;2023-08-06T01:50:32;100643.31;;;17.34;100.00
72896;BME280;61036;53.224;6.554;2023-08-06T01:52:57;100648.56;;;17.28;100.00
72896;BME280;61036;53.224;6.554;2023-08-06T01:55:23;100650.31;;;17.37;100.00
72896;BME280;61036;53.224;6.554;2023-08-06T01:57:48;100643.00;;;17.37;100.00
72896;BME280;61036;53.224;6.554;2023-08-06T02:00:14;100644.53;;;17.40;100.00
72896;BME280;61036;53.224;6.554;2023-08-06T02:02:40;100636.69;;;17.37;100.00
72896;BME280;61036;53.224;6.554;2023-08-06T02:05:06;100640.63;;;17.43;100.00
72896;BME280;61036;53.224;6.554;2023-08-06T02:07:32;100636.19;;;17.42;100.00
72896;BME280;61036;53.224;6.554;2023-08-06T02:09:57;100637.06;;;17.50;100.00
72896;BME280;61036;53.224;6.554;2023-08-06T02:12:23;100635.75;;;17.63;100.00
72896;BME280;61036;53.224;6.554;2023-08-06T02:14:49;100638.53;;;16.94;100.00
72896;BME280;61036;53.224;6.554;2023-08-06T02:17:15;100637.81;;;17.26;100.00
72896;BME280;61036;53.224;6.554;2023-08-06T02:19:40;100639.47;;;17.11;100.00
72896;BME280;61036;53.224;6.554;2023-08-06T02:22:06;100635.16;;;17.00;100.00
72896;BME280;61036;53.224;6.554;2023-08-06T02:24:31;100642.00;;;16.78;100.00
72896;BME280;61036;53.224;6.554;2023-08-06T02:26:57;100637.94;;;16.82;100.00
72896;BME280;61036;53.224;6.554;2023-08-06T02:29:22;100630.81;;;17.24;100.00
72896;BME280;61036;53.224;6.554;2023-08-06T02:31:48;100626.41;;;17.23;100.00
72896;BME280;61036;53.224;6.554;2023-08-06T02:34:13;100632.94;;;17.38;100.00
72896;BME280;61036;53.224;6.554;2023-08-06T02:36:39;100621.16;;;17.29;100.00
72896;BME280;61036;53.224;6.554;2023-08-06T02:39:05;100613.03;;;17.46;100.00
72896;BME280;61036;53.224;6.554;2023-08-06T02:41:31;100611.19;;;17.54;100.00
72896;BME280;61036;53.224;6.554;2023-08-06T02:43:57;100608.31;;;17.64;100.00
72896;BME280;61036;53.224;6.554;2023-08-06T02:46:22;100603.56;;;17.66;100.00
72896;BME280;61036;53.224;6.554;2023-08-06T02:48:48;100601.50;;;17.68;100.00
72896;BME280;61036;53.224;6.554;2023-08-06T02:51:14;100592.66;;;17.66;100.00
72896;BME280;61036;53.224;6.554;2023-08-06T02:53:39;100596.19;;;17.50;100.00
72896;BME280;61036;53.224;6.554;2023-08-06T02:56:08;100597.31;;;17.31;100.00
72896;BME280;61036;53.224;6.554;2023-08-06T02:58:46;100600.38;;;17.28;100.00
72896;BME280;61036;53.224;6.554;2023-08-06T03:01:25;100598.72;;;17.44;100.00
72896;BME280;61036;53.224;6.554;2023-08-06T03:03:56;100592.94;;;17.47;100.00
72896;BME280;61036;53.224;6.554;2023-08-06T03:06:28;100598.13;;;17.16;100.00
72896;BME280;61036;53.224;6.554;2023-08-06T03:08:56;100597.00;;;17.34;100.00
72896;BME280;61036;53.224;6.554;2023-08-06T03:11:22;100593.59;;;17.41;100.00
72896;BME280;61036;53.224;6.554;2023-08-06T03:13:53;100591.53;;;17.34;100.00
72896;BME280;61036;53.224;6.554;2023-08-06T03:16:18;100589.34;;;17.46;100.00
72896;BME280;61036;53.224;6.554;2023-08-06T03:18:44;100583.53;;;17.41;100.00
72896;BME280;61036;53.224;6.554;2023-08-06T03:21:10;100586.81;;;17.53;100.00
72896;BME280;61036;53.224;6.554;2023-08-06T03:23:35;100578.47;;;17.63;100.00
72896;BME280;61036;53.224;6.554;2023-08-06T03:26:04;100573.28;;;17.86;100.00
72896;BME280;61036;53.224;6.554;2023-08-06T03:28:31;100576.28;;;17.66;100.00
72896;BME280;61036;53.224;6.554;2023-08-06T03:31:03;100569.63;;;17.69;100.00
72896;BME280;61036;53.224;6.554;2023-08-06T03:33:36;100578.09;;;17.41;100.00
72896;BME280;61036;53.224;6.554;2023-08-06T03:36:04;100580.50;;;17.52;100.00
72896;BME280;61036;53.224;6.554;2023-08-06T03:38:32;100575.56;;;17.56;100.00
72896;BME280;61036;53.224;6.554;2023-08-06T03:40:59;100574.53;;;17.49;100.00
72896;BME280;61036;53.224;6.554;2023-08-06T03:43:25;100571.13;;;17.47;100.00
72896;BME280;61036;53.224;6.554;2023-08-06T03:45:51;100562.13;;;17.54;100.00
72896;BME280;61036;53.224;6.554;2023-08-06T03:48:16;100576.09;;;17.59;100.00
72896;BME280;61036;53.224;6.554;2023-08-06T03:50:42;100573.22;;;17.61;100.00
72896;BME280;61036;53.224;6.554;2023-08-06T03:53:11;100573.47;;;17.33;100.00
72896;BME280;61036;53.224;6.554;2023-08-06T03:55:37;100577.94;;;17.51;100.00
72896;BME280;61036;53.224;6.554;2023-08-06T03:58:02;100573.03;;;17.54;100.00
72896;BME280;61036;53.224;6.554;2023-08-06T04:00:28;100574.06;;;17.62;100.00
72896;BME280;61036;53.224;6.554;2023-08-06T04:02:54;100573.22;;;17.61;100.00
72896;BME280;61036;53.224;6.554;2023-08-06T04:05:20;100565.03;;;17.61;100.00
72896;BME280;61036;53.224;6.554;2023-08-06T04:07:49;100572.50;;;17.59;100.00
72896;BME280;61036;53.224;6.554;2023-08-06T04:10:14;100575.41;;;17.66;100.00
72896;BME280;61036;53.224;6.554;2023-08-06T04:12:39;100572.53;;;17.67;100.00
72896;BME280;61036;53.224;6.554;2023-08-06T04:15:05;100573.41;;;17.76;100.00
72896;BME280;61036;53.224;6.554;2023-08-06T04:17:31;100572.72;;;17.74;100.00
72896;BME280;61036;53.224;6.554;2023-08-06T04:19:57;100571.34;;;17.70;100.00
72896;BME280;61036;53.224;6.554;2023-08-06T04:22:25;100576.47;;;17.73;100.00
72896;BME280;61036;53.224;6.554;2023-08-06T04:24:51;100579.19;;;17.73;100.00
72896;BME280;61036;53.224;6.554;2023-08-06T04:27:18;100577.22;;;17.91;100.00
72896;BME280;61036;53.224;6.554;2023-08-06T04:29:44;100579.41;;;17.79;100.00
72896;BME280;61036;53.224;6.554;2023-08-06T04:32:10;100575.66;;;17.80;100.00
72896;BME280;61036;53.224;6.554;2023-08-06T04:34:41;100585.72;;;17.80;100.00
72896;BME280;61036;53.224;6.554;2023-08-06T04:37:07;100579.72;;;17.76;100.00
72896;BME280;61036;53.224;6.554;2023-08-06T04:39:32;100587.19;;;17.74;100.00
72896;BME280;61036;53.224;6.554;2023-08-06T04:41:58;100583.84;;;17.80;100.00
72896;BME280;61036;53.224;6.554;2023-08-06T04:44:25;100586.91;;;17.77;100.00
72896;BME280;61036;53.224;6.554;2023-08-06T04:46:51;100579.03;;;17.74;100.00
72896;BME280;61036;53.224;6.554;2023-08-06T04:49:18;100581.31;;;17.87;100.00
72896;BME280;61036;53.224;6.554;2023-08-06T04:51:46;100581.59;;;17.76;100.00
72896;BME280;61036;53.224;6.554;2023-08-06T04:54:11;100584.88;;;17.79;100.00
72896;BME280;61036;53.224;6.554;2023-08-06T04:56:36;100579.88;;;17.67;100.00
72896;BME280;61036;53.224;6.554;2023-08-06T04:59:02;100578.81;;;17.59;100.00
72896;BME280;61036;53.224;6.554;2023-08-06T05:01:28;100578.69;;;17.69;100.00
72896;BME280;61036;53.224;6.554;2023-08-06T05:03:57;100577.13;;;17.58;100.00
72896;BME280;61036;53.224;6.554;2023-08-06T05:06:23;100580.88;;;17.57;100.00
72896;BME280;61036;53.224;6.554;2023-08-06T05:08:49;100586.19;;;17.67;100.00
72896;BME280;61036;53.224;6.554;2023-08-06T05:11:14;100573.91;;;17.71;100.00
72896;BME280;61036;53.224;6.554;2023-08-06T05:13:40;100584.16;;;17.69;100.00
72896;BME280;61036;53.224;6.554;2023-08-06T05:16:05;100578.34;;;17.72;100.00
72896;BME280;61036;53.224;6.554;2023-08-06T05:18:31;100577.47;;;17.72;100.00
72896;BME280;61036;53.224;6.554;2023-08-06T05:20:57;100580.88;;;17.66;100.00
72896;BME280;61036;53.224;6.554;2023-08-06T05:23:22;100579.03;;;17.74;100.00
72896;BME280;61036;53.224;6.554;2023-08-06T05:25:48;100579.53;;;17.70;100.00
72896;BME280;61036;53.224;6.554;2023-08-06T05:28:13;100583.28;;;17.77;100.00
72896;BME280;61036;53.224;6.554;2023-08-06T05:30:42;100581.66;;;17.84;100.00
72896;BME280;61036;53.224;6.554;2023-08-06T05:33:08;100592.00;;;17.72;100.00
72896;BME280;61036;53.224;6.554;2023-08-06T05:35:33;100592.66;;;17.74;100.00
72896;BME280;61036;53.224;6.554;2023-08-06T05:37:59;100589.94;;;17.66;100.00
72896;BME280;61036;53.224;6.554;2023-08-06T05:40:24;100590.81;;;17.83;100.00
72896;BME280;61036;53.224;6.554;2023-08-06T05:42:53;100600.59;;;18.18;100.00
72896;BME280;61036;53.224;6.554;2023-08-06T05:45:19;100597.69;;;18.28;100.00
72896;BME280;61036;53.224;6.554;2023-08-06T05:47:44;100594.06;;;18.44;100.00
72896;BME280;61036;53.224;6.554;2023-08-06T05:50:12;100587.91;;;18.50;100.00
72896;BME280;61036;53.224;6.554;2023-08-06T05:52:38;100598.69;;;18.60;100.00
72896;BME280;61036;53.224;6.554;2023-08-06T05:55:04;100603.09;;;18.85;100.00
72896;BME280;61036;53.224;6.554;2023-08-06T05:57:29;100608.94;;;18.41;100.00
72896;BME280;61036;53.224;6.554;2023-08-06T05:59:55;100598.84;;;18.50;100.00
72896;BME280;61036;53.224;6.554;2023-08-06T06:02:20;100604.09;;;18.68;100.00
72896;BME280;61036;53.224;6.554;2023-08-06T06:04:46;100612.66;;;18.65;100.00
72896;BME280;61036;53.224;6.554;2023-08-06T06:07:11;100604.28;;;18.83;100.00
72896;BME280;61036;53.224;6.554;2023-08-06T06:09:37;100608.19;;;18.96;100.00
72896;BME280;61036;53.224;6.554;2023-08-06T06:12:03;100609.78;;;18.75;100.00
72896;BME280;61036;53.224;6.554;2023-08-06T06:14:28;100609.38;;;18.94;100.00
72896;BME280;61036;53.224;6.554;2023-08-06T06:16:54;100610.31;;;19.26;100.00
72896;BME280;61036;53.224;6.554;2023-08-06T06:19:19;100609.56;;;18.92;100.00
72896;BME280;61036;53.224;6.554;2023-08-06T06:21:45;100610.56;;;19.00;100.00
72896;BME280;61036;53.224;6.554;2023-08-06T06:24:10;100609.00;;;19.05;100.00
72896;BME280;61036;53.224;6.554;2023-08-06T06:26:36;100605.38;;;19.13;100.00
72896;BME280;61036;53.224;6.554;2023-08-06T06:29:01;100614.75;;;19.18;100.00
72896;BME280;61036;53.224;6.554;2023-08-06T06:31:27;100610.44;;;19.32;100.00
72896;BME280;61036;53.224;6.554;2023-08-06T06:33:53;100616.28;;;19.29;100.00
72896;BME280;61036;53.224;6.554;2023-08-06T06:36:19;100610.41;;;19.40;100.00
72896;BME280;61036;53.224;6.554;2023-08-06T06:38:45;100610.59;;;19.70;100.00
72896;BME280;61036;53.224;6.554;2023-08-06T06:41:11;100612.94;;;19.50;100.00
72896;BME280;61036;53.224;6.554;2023-08-06T06:43:36;100617.97;;;19.70;100.00
72896;BME280;61036;53.224;6.554;2023-08-06T06:46:04;100617.72;;;19.48;100.00
72896;BME280;61036;53.224;6.554;2023-08-06T06:48:31;100619.50;;;19.72;100.00
72896;BME280;61036;53.224;6.554;2023-08-06T06:50:56;100621.94;;;19.90;100.00
72896;BME280;61036;53.224;6.554;2023-08-06T06:53:22;100628.41;;;20.20;100.00
72896;BME280;61036;53.224;6.554;2023-08-06T06:55:55;100631.81;;;20.22;100.00
72896;BME280;61036;53.224;6.554;2023-08-06T06:58:21;100627.38;;;20.21;100.00
72896;BME280;61036;53.224;6.554;2023-08-06T07:00:47;100631.88;;;20.37;100.00
72896;BME280;61036;53.224;6.554;2023-08-06T07:03:16;100624.69;;;20.59;100.00
72896;BME280;61036;53.224;6.554;2023-08-06T07:05:42;100624.41;;;20.31;100.00
72896;BME280;61036;53.224;6.554;2023-08-06T07:08:08;100629.56;;;20.26;100.00
72896;BME280;61036;53.224;6.554;2023-08-06T07:10:34;100627.44;;;20.13;100.00
72896;BME280;61036;53.224;6.554;2023-08-06T07:12:59;100626.22;;;19.93;100.00
72896;BME280;61036;53.224;6.554;2023-08-06T07:15:25;100621.94;;;19.90;100.00
72896;BME280;61036;53.224;6.554;2023-08-06T07:17:51;100628.41;;;20.20;100.00
72896;BME280;61036;53.224;6.554;2023-08-06T07:20:16;100628.03;;;20.00;100.00
72896;BME280;61036;53.224;6.554;2023-08-06T07:22:42;100628.72;;;20.25;100.00
72896;BME280;61036;53.224;6.554;2023-08-06T07:25:07;100626.72;;;20.80;100.00
72896;BME280;61036;53.224;6.554;2023-08-06T07:27:33;100625.59;;;20.89;100.00
72896;BME280;61036;53.224;6.554;2023-08-06T07:29:58;100630.78;;;21.14;100.00
72896;BME280;61036;53.224;6.554;2023-08-06T07:32:24;100631.00;;;21.12;100.00
72896;BME280;61036;53.224;6.554;2023-08-06T07:34:50;100627.38;;;21.12;100.00
72896;BME280;61036;53.224;6.554;2023-08-06T07:37:21;100621.03;;;21.11;100.00
72896;BME280;61036;53.224;6.554;2023-08-06T07:39:47;100632.38;;;20.93;100.00
72896;BME280;61036;53.224;6.554;2023-08-06T07:42:12;100628.97;;;20.76;100.00
72896;BME280;61036;53.224;6.554;2023-08-06T07:44:38;100626.81;;;21.61;100.00
72896;BME280;61036;53.224;6.554;2023-08-06T07:47:04;100624.91;;;21.61;100.00
72896;BME280;61036;53.224;6.554;2023-08-06T07:49:29;100622.31;;;21.75;100.00
72896;BME280;61036;53.224;6.554;2023-08-06T07:51:55;100631.53;;;21.22;100.00
72896;BME280;61036;53.224;6.554;2023-08-06T07:54:20;100624.38;;;21.51;100.00
72896;BME280;61036;53.224;6.554;2023-08-06T07:56:46;100621.19;;;21.69;100.00
72896;BME280;61036;53.224;6.554;2023-08-06T07:59:11;100621.06;;;21.77;100.00
72896;BME280;61036;53.224;6.554;2023-08-06T08:01:37;100619.59;;;21.96;100.00
72896;BME280;61036;53.224;6.554;2023-08-06T08:04:02;100616.75;;;21.68;100.00
72896;BME280;61036;53.224;6.554;2023-08-06T08:06:29;100610.47;;;21.74;100.00
72896;BME280;61036;53.224;6.554;2023-08-06T08:08:55;100614.91;;;21.24;100.00
72896;BME280;61036;53.224;6.554;2023-08-06T08:11:21;100616.22;;;22.15;100.00
72896;BME280;61036;53.224;6.554;2023-08-06T08:13:46;100612.63;;;22.36;100.00
72896;BME280;61036;53.224;6.554;2023-08-06T08:16:12;100613.25;;;22.60;100.00
72896;BME280;61036;53.224;6.554;2023-08-06T08:18:37;100610.56;;;22.67;100.00
72896;BME280;61036;53.224;6.554;2023-08-06T08:21:03;100601.06;;;22.97;100.00
72896;BME280;61036;53.224;6.554;2023-08-06T08:23:28;100606.06;;;22.87;100.00
72896;BME280;61036;53.224;6.554;2023-08-06T08:25:54;100605.34;;;23.07;100.00
72896;BME280;61036;53.224;6.554;2023-08-06T08:28:19;100607.16;;;22.93;100.00
72896;BME280;61036;53.224;6.554;2023-08-06T08:30:45;100603.53;;;23.20;100.00
72896;BME280;61036;53.224;6.554;2023-08-06T08:33:10;100602.75;;;22.98;100.00
72896;BME280;61036;53.224;6.554;2023-08-06T08:35:36;100607.72;;;23.58;100.00
72896;BME280;61036;53.224;6.554;2023-08-06T08:38:02;100610.94;;;23.20;100.00
72896;BME280;61036;53.224;6.554;2023-08-06T08:40:33;100602.28;;;23.23;100.00
72896;BME280;61036;53.224;6.554;2023-08-06T08:43:02;100600.00;;;23.40;100.00
72896;BME280;61036;53.224;6.554;2023-08-06T08:45:29;100599.69;;;24.64;100.00
72896;BME280;61036;53.224;6.554;2023-08-06T08:47:55;100596.50;;;24.47;100.00
72896;BME280;61036;53.224;6.554;2023-08-06T08:50:21;100598.00;;;22.86;100.00
72896;BME280;61036;53.224;6.554;2023-08-06T08:52:47;100600.53;;;24.45;100.00
72896;BME280;61036;53.224;6.554;2023-08-06T08:55:14;100598.00;;;24.50;100.00
72896;BME280;61036;53.224;6.554;2023-08-06T08:57:40;100601.16;;;24.67;100.00
72896;BME280;61036;53.224;6.554;2023-08-06T09:00:06;100608.34;;;24.34;100.00
72896;BME280;61036;53.224;6.554;2023-08-06T09:02:33;100593.47;;;24.95;100.00
72896;BME280;61036;53.224;6.554;2023-08-06T09:05:00;100597.88;;;25.23;100.00
72896;BME280;61036;53.224;6.554;2023-08-06T09:07:49;100607.94;;;24.37;100.00
72896;BME280;61036;53.224;6.554;2023-08-06T09:10:19;100603.47;;;25.61;100.00
72896;BME280;61036;53.224;6.554;2023-08-06T09:12:50;100611.13;;;24.68;100.00
72896;BME280;61036;53.224;6.554;2023-08-06T09:15:16;100605.59;;;24.81;100.00
72896;BME280;61036;53.224;6.554;2023-08-06T09:17:41;100611.50;;;24.25;100.00
72896;BME280;61036;53.224;6.554;2023-08-06T09:20:13;100607.81;;;25.37;100.00
72896;BME280;61036;53.224;6.554;2023-08-06T09:22:40;100615.91;;;25.32;100.00
72896;BME280;61036;53.224;6.554;2023-08-06T09:25:07;100607.84;;;25.30;100.00
72896;BME280;61036;53.224;6.554;2023-08-06T09:27:38;100614.03;;;25.19;100.00
72896;BME280;61036;53.224;6.554;2023-08-06T09:30:06;100625.50;;;25.16;100.00
72896;BME280;61036;53.224;6.554;2023-08-06T09:32:48;100621.97;;;25.54;100.00
72896;BME280;61036;53.224;6.554;2023-08-06T09:35:18;100622.25;;;25.32;100.00
72896;BME280;61036;53.224;6.554;2023-08-06T09:37:44;100614.13;;;26.03;100.00
72896;BME280;61036;53.224;6.554;2023-08-06T09:40:30;100622.50;;;27.21;100.00
72896;BME280;61036;53.224;6.554;2023-08-06T09:42:58;100615.50;;;27.37;100.00
72896;BME280;61036;53.224;6.554;2023-08-06T09:45:30;100622.75;;;28.47;100.00
72896;BME280;61036;53.224;6.554;2023-08-06T09:47:57;100627.97;;;28.90;100.00
72896;BME280;61036;53.224;6.554;2023-08-06T09:50:28;100623.81;;;28.58;100.00
72896;BME280;61036;53.224;6.554;2023-08-06T09:52:54;100627.53;;;27.79;100.00
72896;BME280;61036;53.224;6.554;2023-08-06T09:55:21;100625.50;;;27.56;100.00
72896;BME280;61036;53.224;6.554;2023-08-06T09:57:47;100625.72;;;27.55;100.00
72896;BME280;61036;53.224;6.554;2023-08-06T10:00:13;100621.88;;;27.56;100.00
72896;BME280;61036;53.224;6.554;2023-08-06T10:02:40;100631.03;;;27.56;100.00
72896;BME280;61036;53.224;6.554;2023-08-06T10:05:07;100617.66;;;27.53;100.00
72896;BME280;61036;53.224;6.554;2023-08-06T10:07:33;100628.22;;;28.35;100.00
72896;BME280;61036;53.224;6.554;2023-08-06T10:09:59;100625.16;;;28.13;100.00
72896;BME280;61036;53.224;6.554;2023-08-06T10:12:26;100630.69;;;28.01;100.00
72896;BME280;61036;53.224;6.554;2023-08-06T10:14:55;100624.88;;;27.36;100.00
72896;BME280;61036;53.224;6.554;2023-08-06T10:17:23;100622.94;;;27.36;100.00
72896;BME280;61036;53.224;6.554;2023-08-06T10:19:50;100622.53;;;26.96;100.00
72896;BME280;61036;53.224;6.554;2023-08-06T10:22:18;100618.84;;;27.02;100.00
72896;BME280;61036;53.224;6.554;2023-08-06T10:30:24;100629.13;;;26.45;100.00
72896;BME280;61036;53.224;6.554;2023-08-06T10:32:51;100620.00;;;26.38;100.00
72896;BME280;61036;53.224;6.554;2023-08-06T10:35:45;100629.78;;;27.34;100.00
72896;BME280;61036;53.224;6.554;2023-08-06T10:38:21;100618.78;;;26.34;100.00
72896;BME280;61036;53.224;6.554;2023-08-06T10:41:01;100625.53;;;26.38;100.00
72896;BME280;61036;53.224;6.554;2023-08-06T10:45:52;100630.28;;;25.47;100.00
72896;BME280;61036;53.224;6.554;2023-08-06T10:51:00;100620.06;;;25.48;100.00
72896;BME280;61036;53.224;6.554;2023-08-06T10:53:26;100630.97;;;25.29;100.00
72896;BME280;61036;53.224;6.554;2023-08-06T10:55:52;100623.06;;;25.46;100.00
72896;BME280;61036;53.224;6.554;2023-08-06T10:58:17;100631.47;;;24.86;100.00
72896;BME280;61036;53.224;6.554;2023-08-06T11:00:43;100631.66;;;25.05;100.00
72896;BME280;61036;53.224;6.554;2023-08-06T11:03:08;100625.84;;;25.46;100.00
72896;BME280;61036;53.224;6.554;2023-08-06T11:05:35;100629.59;;;25.59;100.00
72896;BME280;61036;53.224;6.554;2023-08-06T11:08:01;100614.56;;;25.54;100.00
72896;BME280;61036;53.224;6.554;2023-08-06T11:10:27;100617.13;;;25.49;100.00
72896;BME280;61036;53.224;6.554;2023-08-06T11:12:52;100618.47;;;26.17;100.00
72896;BME280;61036;53.224;6.554;2023-08-06T11:15:22;100619.59;;;26.09;100.00
72896;BME280;61036;53.224;6.554;2023-08-06T11:17:50;100621.59;;;25.95;100.00
72896;BME280;61036;53.224;6.554;2023-08-06T11:20:15;100622.56;;;25.69;100.00
72896;BME280;61036;53.224;6.554;2023-08-06T11:22:41;100609.25;;;25.98;100.00
72896;BME280;61036;53.224;6.554;2023-08-06T11:25:07;100616.84;;;26.09;100.00
72896;BME280;61036;53.224;6.554;2023-08-06T11:27:32;100615.69;;;25.34;100.00
72896;BME280;61036;53.224;6.554;2023-08-06T11:29:58;100617.09;;;25.56;100.00
72896;BME280;61036;53.224;6.554;2023-08-06T11:32:24;100617.13;;;25.49;100.00
72896;BME280;61036;53.224;6.554;2023-08-06T11:34:50;100621.84;;;25.81;100.00
72896;BME280;61036;53.224;6.554;2023-08-06T11:37:15;100620.19;;;25.73;100.00
72896;BME280;61036;53.224;6.554;2023-08-06T11:39:46;100621.31;;;24.74;100.00
72896;BME280;61036;53.224;6.554;2023-08-06T11:42:15;100626.44;;;25.55;100.00
72896;BME280;61036;53.224;6.554;2023-08-06T11:44:41;100616.00;;;25.57;100.00
72896;BME280;61036;53.224;6.554;2023-08-06T11:47:15;100619.88;;;25.49;100.00
72896;BME280;61036;53.224;6.554;2023-08-06T11:49:48;100622.66;;;25.36;100.00
72896;BME280;61036;53.224;6.554;2023-08-06T11:55:08;100622.56;;;24.91;100.00
72896;BME280;61036;53.224;6.554;2023-08-06T11:57:38;100623.41;;;24.72;100.00
72896;BME280;61036;53.224;6.554;2023-08-06T12:00:06;100628.94;;;24.65;100.00
72896;BME280;61036;53.224;6.554;2023-08-06T12:02:43;100629.94;;;25.17;100.00
72896;BME280;61036;53.224;6.554;2023-08-06T12:05:12;100629.81;;;25.64;100.00
72896;BME280;61036;53.224;6.554;2023-08-06T12:07:39;100629.06;;;25.30;100.00
72896;BME280;61036;53.224;6.554;2023-08-06T12:10:05;100623.59;;;25.03;100.00
72896;BME280;61036;53.224;6.554;2023-08-06T12:12:31;100629.75;;;25.19;100.00
72896;BME280;61036;53.224;6.554;2023-08-06T12:14:57;100619.59;;;24.73;100.00
72896;BME280;61036;53.224;6.554;2023-08-06T12:17:24;100627.84;;;24.93;100.00
72896;BME280;61036;53.224;6.554;2023-08-06T12:19:49;100628.44;;;24.22;100.00
72896;BME280;61036;53.224;6.554;2023-08-06T12:22:15;100624.50;;;24.71;100.00
72896;BME280;61036;53.224;6.554;2023-08-06T12:24:42;100617.84;;;25.05;100.00
72896;BME280;61036;53.224;6.554;2023-08-06T12:27:08;100629.94;;;25.30;100.00
72896;BME280;61036;53.224;6.554;2023-08-06T12:29:33;100630.38;;;25.14;100.00
72896;BME280;61036;53.224;6.554;2023-08-06T12:31:58;100626.16;;;24.92;100.00
72896;BME280;61036;53.224;6.554;2023-08-06T12:34:24;100638.28;;;24.71;100.00
72896;BME280;61036;53.224;6.554;2023-08-06T12:36:49;100641.22;;;24.76;100.00
72896;BME280;61036;53.224;6.554;2023-08-06T12:39:15;100630.16;;;24.23;100.00
72896;BME280;61036;53.224;6.554;2023-08-06T12:41:41;100625.69;;;24.08;100.00
72896;BME280;61036;53.224;6.554;2023-08-06T12:44:08;100639.34;;;24.50;100.00
72896;BME280;61036;53.224;6.554;2023-08-06T12:46:34;100637.41;;;24.57;100.00
72896;BME280;61036;53.224;6.554;2023-08-06T12:48:59;100635.50;;;24.77;100.00
72896;BME280;61036;53.224;6.554;2023-08-06T12:51:25;100629.72;;;25.05;100.00
72896;BME280;61036;53.224;6.554;2023-08-06T12:53:50;100640.19;;;24.77;100.00
72896;BME280;61036;53.224;6.554;2023-08-06T12:56:16;100631.84;;;25.10;100.00
72896;BME280;61036;53.224;6.554;2023-08-06T12:58:41;100630.84;;;24.58;100.00
72896;BME280;61036;53.224;6.554;2023-08-06T13:01:07;100642.28;;;24.55;100.00